Terminal Aerodrome Forecast
Issued by NWS

Home | Current Version | Previous Version | Graphics & Text | Print | Product List | Glossary On
Versions: 1 2 3 4 5 6 7 8 9 10 11 12 13 14 15
000
FTUS43 KMPX 252338
TAFRWF
TAF
KRWF 252338Z 2600/2624 07008KT P6SM OVC015
     FM260500 08007KT 4SM BR OVC009
     FM260900 06006KT P6SM OVC004
     FM261500 02008KT P6SM OVC007
     FM262000 25006KT P6SM OVC012=

USA.gov is the U.S. government's official web portal to all federal, state and local government web resources and services.